Time,TemperatureF,DewpointF,PressureIn,WindDirection,WindDirectionDegrees,WindSpeedMPH,WindSpeedGustMPH,Humidity,HourlyPrecipIn,Conditions,Clouds,dailyrainin,SoftwareType,DateUTC
2013-02-07 00:00:00,24.5,6.7,30.30,North,358,0.0,2.0,46,0.00,,---,0.03,VWS V14.01,2013-02-07 05:00:00,
2013-02-07 00:05:00,24.4,6.6,30.30,North,358,1.0,2.0,46,0.00,,---,0.00,VWS V14.01,2013-02-07 05:05:00,
2013-02-07 00:10:00,24.4,6.1,30.31,North,358,1.0,2.0,45,0.00,,---,0.00,VWS V14.01,2013-02-07 05:10:00,
2013-02-07 00:15:00,24.4,6.1,30.30,WNW,294,0.0,4.0,45,0.00,,---,0.00,VWS V14.01,2013-02-07 05:15:00,
2013-02-07 00:20:00,24.3,6.0,30.31,WNW,294,0.0,1.0,45,0.00,,---,0.00,VWS V14.01,2013-02-07 05:20:00,
2013-02-07 00:25:00,24.1,6.3,30.30,North,350,0.0,2.0,46,0.00,,---,0.00,VWS V14.01,2013-02-07 05:25:00,
2013-02-07 00:30:00,24.0,6.2,30.30,North,350,2.0,2.0,46,0.00,,---,0.00,VWS V14.01,2013-02-07 05:30:00,
2013-02-07 00:35:00,23.9,6.6,30.31,North,350,0.0,2.0,47,0.00,,---,0.00,VWS V14.01,2013-02-07 05:35:00,
2013-02-07 00:40:00,23.7,6.0,30.31,WNW,294,1.0,6.0,46,0.00,,---,0.00,VWS V14.01,2013-02-07 05:40:00,
2013-02-07 00:45:00,23.7,6.9,30.32,WNW,294,0.0,1.0,48,0.00,,---,0.00,VWS V14.01,2013-02-07 05:45:00,
2013-02-07 00:50:00,23.5,6.2,30.32,West,279,0.0,4.0,47,0.00,,---,0.00,VWS V14.01,2013-02-07 05:50:00,
2013-02-07 00:55:00,23.4,6.2,30.32,West,279,0.0,0.0,47,0.00,,---,0.00,VWS V14.01,2013-02-07 05:55:00,
2013-02-07 01:00:00,23.2,6.4,30.32,NW,308,0.0,2.0,48,0.00,,---,0.00,VWS V14.01,2013-02-07 06:00:00,
2013-02-07 01:04:00,23.0,7.6,30.32,NW,308,0.0,0.0,51,0.00,,---,0.00,VWS V14.01,2013-02-07 06:04:00,
2013-02-07 01:05:00,23.0,7.6,30.32,NW,308,0.0,0.0,51,0.00,,---,0.00,VWS V14.01,2013-02-07 06:05:00,
2013-02-07 01:10:00,22.7,7.7,30.32,NW,308,0.0,1.0,52,0.00,,---,0.00,VWS V14.01,2013-02-07 06:10:00,
2013-02-07 01:15:00,22.5,7.5,30.33,NW,308,0.0,1.0,52,0.00,,---,0.00,VWS V14.01,2013-02-07 06:15:00,
2013-02-07 01:20:00,22.3,8.2,30.33,NW,308,0.0,2.0,54,0.00,,---,0.00,VWS V14.01,2013-02-07 06:20:00,
2013-02-07 01:24:00,22.2,7.3,30.33,NW,309,0.0,2.0,52,0.00,,---,0.00,VWS V14.01,2013-02-07 06:24:00,
2013-02-07 01:25:00,22.2,7.3,30.33,NW,309,0.0,2.0,52,0.00,,---,0.00,VWS V14.01,2013-02-07 06:25:00,
2013-02-07 01:30:00,22.2,6.8,30.33,NNW,332,2.0,4.0,51,0.00,,---,0.00,VWS V14.01,2013-02-07 06:30:00,
2013-02-07 01:35:00,22.4,6.6,30.33,North,360,1.0,4.0,50,0.00,,---,0.00,VWS V14.01,2013-02-07 06:35:00,
2013-02-07 01:40:00,22.5,6.2,30.33,North,360,1.0,1.0,49,0.00,,---,0.00,VWS V14.01,2013-02-07 06:40:00,
2013-02-07 01:45:00,22.4,6.2,30.34,NNW,336,2.0,3.0,49,0.00,,---,0.00,VWS V14.01,2013-02-07 06:45:00,
2013-02-07 01:50:00,22.4,5.7,30.34,North,10,0.0,6.0,48,0.00,,---,0.00,VWS V14.01,2013-02-07 06:50:00,
2013-02-07 01:55:00,22.4,5.7,30.34,North,10,0.0,1.0,48,0.00,,---,0.00,VWS V14.01,2013-02-07 06:55:00,
2013-02-07 02:00:00,22.3,6.1,30.35,North,10,0.0,0.0,49,0.00,,---,0.00,VWS V14.01,2013-02-07 07:00:00,
2013-02-07 02:05:00,22.1,5.4,30.35,NNW,345,0.0,2.0,48,0.00,,---,0.00,VWS V14.01,2013-02-07 07:05:00,
2013-02-07 02:10:00,22.1,5.9,30.35,NNW,344,0.0,2.0,49,0.00,,---,0.00,VWS V14.01,2013-02-07 07:10:00,
2013-02-07 02:15:00,21.9,6.1,30.35,NNW,344,0.0,2.0,50,0.00,,---,0.00,VWS V14.01,2013-02-07 07:15:00,
2013-02-07 02:20:00,21.7,5.9,30.35,NNW,344,0.0,2.0,50,0.00,,---,0.00,VWS V14.01,2013-02-07 07:20:00,
2013-02-07 02:25:00,21.6,5.8,30.35,NNW,344,0.0,0.0,50,0.00,,---,0.00,VWS V14.01,2013-02-07 07:25:00,
2013-02-07 02:30:00,21.3,6.0,30.35,NNW,344,0.0,0.0,51,0.00,,---,0.00,VWS V14.01,2013-02-07 07:30:00,
2013-02-07 02:35:00,21.0,6.2,30.35,WNW,289,0.0,4.0,52,0.00,,---,0.00,VWS V14.01,2013-02-07 07:35:00,
2013-02-07 02:40:00,20.9,6.5,30.35,NNE,19,0.0,2.0,53,0.00,,---,0.00,VWS V14.01,2013-02-07 07:40:00,
2013-02-07 02:45:00,20.7,6.7,30.35,NNE,19,0.0,0.0,54,0.00,,---,0.00,VWS V14.01,2013-02-07 07:45:00,
2013-02-07 02:50:00,20.5,6.5,30.35,NNE,19,0.0,0.0,54,0.00,,---,0.00,VWS V14.01,2013-02-07 07:50:00,
2013-02-07 02:55:00,20.3,5.9,30.36,NNE,19,0.0,0.0,53,0.00,,---,0.00,VWS V14.01,2013-02-07 07:55:00,
2013-02-07 03:00:00,20.1,6.1,30.36,NNE,19,0.0,0.0,54,0.00,,---,0.00,VWS V14.01,2013-02-07 08:00:00,
2013-02-07 03:05:00,19.9,5.9,30.36,NNE,19,0.0,0.0,54,0.00,,---,0.00,VWS V14.01,2013-02-07 08:05:00,
2013-02-07 03:10:00,19.7,5.8,30.37,NNE,19,0.0,1.0,54,0.00,,---,0.00,VWS V14.01,2013-02-07 08:10:00,
2013-02-07 03:15:00,19.5,6.0,30.37,NNE,19,0.0,0.0,55,0.00,,---,0.00,VWS V14.01,2013-02-07 08:15:00,
2013-02-07 03:20:00,19.3,5.8,30.37,NNE,19,0.0,0.0,55,0.00,,---,0.00,VWS V14.01,2013-02-07 08:20:00,
2013-02-07 03:25:00,19.0,5.9,30.38,NNE,19,0.0,0.0,56,0.00,,---,0.00,VWS V14.01,2013-02-07 08:25:00,
2013-02-07 03:30:00,18.9,5.4,30.38,NNE,19,0.0,1.0,55,0.00,,---,0.00,VWS V14.01,2013-02-07 08:30:00,
2013-02-07 03:35:00,18.9,5.4,30.38,NNE,19,0.0,0.0,55,0.00,,---,0.00,VWS V14.01,2013-02-07 08:35:00,
2013-02-07 03:40:00,18.8,5.3,30.38,NNE,19,0.0,0.0,55,0.00,,---,0.00,VWS V14.01,2013-02-07 08:40:00,
2013-02-07 03:45:00,18.7,5.2,30.39,NNE,19,0.0,0.0,55,0.00,,---,0.00,VWS V14.01,2013-02-07 08:45:00,
2013-02-07 03:50:00,18.6,5.9,30.39,NNE,19,0.0,0.0,57,0.00,,---,0.00,VWS V14.01,2013-02-07 08:50:00,
2013-02-07 03:55:00,18.4,5.3,30.39,NNE,19,0.0,0.0,56,0.00,,---,0.00,VWS V14.01,2013-02-07 08:55:00,
2013-02-07 04:00:00,18.2,5.9,30.40,NNE,19,0.0,0.0,58,0.00,,---,0.00,VWS V14.01,2013-02-07 09:00:00,
2013-02-07 04:05:00,18.1,5.1,30.41,NNE,12,0.0,2.0,56,0.00,,---,0.00,VWS V14.01,2013-02-07 09:05:00,
2013-02-07 04:10:00,18.1,4.7,30.40,NNE,12,0.0,0.0,55,0.00,,---,0.00,VWS V14.01,2013-02-07 09:10:00,
2013-02-07 04:15:00,17.9,4.5,30.41,NNE,12,0.0,0.0,55,0.00,,---,0.00,VWS V14.01,2013-02-07 09:15:00,
2013-02-07 04:20:00,17.8,4.0,30.41,NNE,12,0.0,0.0,54,0.00,,---,0.00,VWS V14.01,2013-02-07 09:20:00,
2013-02-07 04:25:00,17.7,3.9,30.41,NNE,12,0.0,0.0,54,0.00,,---,0.00,VWS V14.01,2013-02-07 09:25:00,
2013-02-07 04:30:00,17.5,4.5,30.41,NNE,12,0.0,0.0,56,0.00,,---,0.00,VWS V14.01,2013-02-07 09:30:00,
2013-02-07 04:35:00,17.3,3.9,30.41,NNE,12,0.0,0.0,55,0.00,,---,0.00,VWS V14.01,2013-02-07 09:35:00,
2013-02-07 04:40:00,17.2,4.2,30.42,NNE,12,0.0,0.0,56,0.00,,---,0.00,VWS V14.01,2013-02-07 09:40:00,
2013-02-07 04:45:00,17.0,4.4,30.41,NNE,12,0.0,0.0,57,0.00,,---,0.00,VWS V14.01,2013-02-07 09:45:00,
2013-02-07 04:50:00,16.9,5.1,30.41,NNE,12,0.0,0.0,59,0.00,,---,0.00,VWS V14.01,2013-02-07 09:50:00,
2013-02-07 04:55:00,16.7,5.6,30.41,NNE,12,0.0,0.0,61,0.00,,---,0.00,VWS V14.01,2013-02-07 09:55:00,
2013-02-07 05:00:00,16.5,5.1,30.41,NNE,12,0.0,0.0,60,0.00,,---,0.00,VWS V14.01,2013-02-07 10:00:00,
2013-02-07 05:05:00,16.3,4.1,30.41,NNE,12,0.0,0.0,58,0.00,,---,0.00,VWS V14.01,2013-02-07 10:05:00,
2013-02-07 05:10:00,16.3,4.5,30.42,NNE,12,0.0,0.0,59,0.00,,---,0.00,VWS V14.01,2013-02-07 10:10:00,
2013-02-07 05:15:00,16.3,4.5,30.42,NNE,12,0.0,0.0,59,0.00,,---,0.00,VWS V14.01,2013-02-07 10:15:00,
2013-02-07 05:20:00,16.3,4.5,30.42,NNE,12,0.0,0.0,59,0.00,,---,0.00,VWS V14.01,2013-02-07 10:20:00,
2013-02-07 05:25:00,16.2,4.4,30.42,NNE,12,0.0,0.0,59,0.00,,---,0.00,VWS V14.01,2013-02-07 10:25:00,
2013-02-07 05:30:00,16.1,3.9,30.42,NNE,12,0.0,0.0,58,0.00,,---,0.00,VWS V14.01,2013-02-07 10:30:00,
2013-02-07 05:35:00,16.0,3.8,30.42,NNE,12,0.0,0.0,58,0.00,,---,0.00,VWS V14.01,2013-02-07 10:35:00,
2013-02-07 05:40:00,15.9,4.1,30.43,NNE,12,0.0,0.0,59,0.00,,---,0.00,VWS V14.01,2013-02-07 10:40:00,
2013-02-07 05:45:00,15.9,4.5,30.43,NNE,12,0.0,0.0,60,0.00,,---,0.00,VWS V14.01,2013-02-07 10:45:00,
2013-02-07 05:50:00,15.9,4.5,30.43,NNE,12,0.0,0.0,60,0.00,,---,0.00,VWS V14.01,2013-02-07 10:50:00,
2013-02-07 05:55:00,15.8,4.8,30.43,NNE,12,0.0,0.0,61,0.00,,---,0.00,VWS V14.01,2013-02-07 10:55:00,
2013-02-07 06:00:00,15.7,4.7,30.43,NNE,12,0.0,0.0,61,0.00,,---,0.00,VWS V14.01,2013-02-07 11:00:00,
2013-02-07 06:05:00,15.5,4.1,30.43,NNE,12,0.0,0.0,60,0.00,,---,0.00,VWS V14.01,2013-02-07 11:05:00,
2013-02-07 06:10:00,15.4,4.0,30.43,NNE,12,0.0,0.0,60,0.00,,---,0.00,VWS V14.01,2013-02-07 11:10:00,
2013-02-07 06:15:00,15.3,4.3,30.44,NNE,12,0.0,0.0,61,0.00,,---,0.00,VWS V14.01,2013-02-07 11:15:00,
2013-02-07 06:20:00,15.2,4.2,30.44,NNE,12,0.0,1.0,61,0.00,,---,0.00,VWS V14.01,2013-02-07 11:20:00,
2013-02-07 06:25:00,15.3,3.5,30.44,NNE,12,0.0,0.0,59,0.00,,---,0.00,VWS V14.01,2013-02-07 11:25:00,
2013-02-07 06:30:00,15.4,3.3,30.45,NNE,12,0.0,0.0,58,0.00,,---,0.00,VWS V14.01,2013-02-07 11:30:00,
2013-02-07 06:35:00,15.4,3.3,30.45,NNE,12,0.0,0.0,58,0.00,,---,0.00,VWS V14.01,2013-02-07 11:35:00,
2013-02-07 06:40:00,15.4,3.7,30.45,NNE,12,0.0,0.0,59,0.00,,---,0.00,VWS V14.01,2013-02-07 11:40:00,
2013-02-07 06:45:00,15.4,3.3,30.45,NNE,12,0.0,0.0,58,0.00,,---,0.00,VWS V14.01,2013-02-07 11:45:00,
2013-02-07 06:50:00,15.3,2.8,30.46,NNE,12,0.0,0.0,57,0.00,,---,0.00,VWS V14.01,2013-02-07 11:50:00,
2013-02-07 06:55:00,15.3,2.8,30.46,NNE,12,0.0,0.0,57,0.00,,---,0.00,VWS V14.01,2013-02-07 11:55:00,
2013-02-07 07:00:00,15.3,3.2,30.46,NNE,12,0.0,0.0,58,0.00,,---,0.00,VWS V14.01,2013-02-07 12:00:00,
2013-02-07 07:05:00,15.3,3.9,30.47,NNE,12,0.0,0.0,60,0.00,,---,0.00,VWS V14.01,2013-02-07 12:05:00,
2013-02-07 07:10:00,15.2,4.2,30.47,NNE,12,0.0,0.0,61,0.00,,---,0.00,VWS V14.01,2013-02-07 12:10:00,
2013-02-07 07:15:00,15.3,3.9,30.47,NNE,12,0.0,1.0,60,0.00,,---,0.00,VWS V14.01,2013-02-07 12:15:00,
2013-02-07 07:20:00,15.6,3.5,30.47,NNE,12,0.0,1.0,58,0.00,,---,0.00,VWS V14.01,2013-02-07 12:20:00,
2013-02-07 07:25:00,16.0,3.5,30.47,NNE,12,0.0,1.0,57,0.00,,---,0.00,VWS V14.01,2013-02-07 12:25:00,
2013-02-07 07:30:00,16.3,3.4,30.47,NNE,12,0.0,1.0,56,0.00,,---,0.00,VWS V14.01,2013-02-07 12:30:00,
2013-02-07 07:35:00,16.7,3.3,30.48,NW,320,0.0,3.0,55,0.00,,---,0.00,VWS V14.01,2013-02-07 12:35:00,
2013-02-07 07:40:00,17.0,3.6,30.48,NNE,23,0.0,4.0,55,0.00,,---,0.00,VWS V14.01,2013-02-07 12:40:00,
2013-02-07 07:45:00,17.3,3.5,30.48,NW,321,0.0,3.0,54,0.00,,---,0.00,VWS V14.01,2013-02-07 12:45:00,
2013-02-07 07:50:00,17.6,3.8,30.49,NNE,13,0.0,3.0,54,0.00,,---,0.00,VWS V14.01,2013-02-07 12:50:00,
2013-02-07 07:55:00,17.9,3.3,30.49,NW,304,1.0,5.0,52,0.00,,---,0.00,VWS V14.01,2013-02-07 12:55:00,
2013-02-07 08:00:00,18.2,3.5,30.49,NNW,346,1.0,7.0,52,0.00,,---,0.00,VWS V14.01,2013-02-07 13:00:00,
2013-02-07 08:05:00,18.5,3.8,30.50,NNE,30,6.0,6.0,52,0.00,,---,0.00,VWS V14.01,2013-02-07 13:05:00,
2013-02-07 08:10:00,18.8,3.7,30.50,NNE,30,0.0,6.0,51,0.00,,---,0.00,VWS V14.01,2013-02-07 13:10:00,
2013-02-07 08:15:00,19.1,3.5,30.51,NW,317,1.0,7.0,50,0.00,,---,0.00,VWS V14.01,2013-02-07 13:15:00,
2013-02-07 08:20:00,19.2,4.1,30.51,NW,314,3.0,4.0,51,0.00,,---,0.00,VWS V14.01,2013-02-07 13:20:00,
2013-02-07 08:25:00,19.4,3.8,30.51,North,10,3.0,9.0,50,0.00,,---,0.00,VWS V14.01,2013-02-07 13:25:00,
2013-02-07 08:30:00,19.4,2.9,30.51,North,355,0.0,7.0,48,0.00,,---,0.00,VWS V14.01,2013-02-07 13:30:00,
2013-02-07 08:35:00,19.4,2.9,30.51,NNE,16,3.0,6.0,48,0.00,,---,0.00,VWS V14.01,2013-02-07 13:35:00,
2013-02-07 08:40:00,19.7,3.7,30.51,NNW,341,2.0,6.0,49,0.00,,---,0.00,VWS V14.01,2013-02-07 13:40:00,
2013-02-07 08:45:00,20.0,3.0,30.51,NE,40,4.0,7.0,47,0.00,,---,0.00,VWS V14.01,2013-02-07 13:45:00,
2013-02-07 08:50:00,20.2,3.2,30.51,NW,321,2.0,6.0,47,0.00,,---,0.00,VWS V14.01,2013-02-07 13:50:00,
2013-02-07 08:55:00,20.5,3.0,30.51,NNE,30,5.0,7.0,46,0.00,,---,0.00,VWS V14.01,2013-02-07 13:55:00,
2013-02-07 09:00:00,20.7,2.7,30.51,NNW,333,2.0,10.0,45,0.00,,---,0.00,VWS V14.01,2013-02-07 14:00:00,
2013-02-07 09:05:00,21.0,3.0,30.51,NW,316,3.0,9.0,45,0.00,,---,0.00,VWS V14.01,2013-02-07 14:05:00,
2013-02-07 09:10:00,21.4,2.9,30.52,NNW,333,1.0,8.0,44,0.00,,---,0.00,VWS V14.01,2013-02-07 14:10:00,
2013-02-07 09:15:00,21.7,2.7,30.52,WNW,303,3.0,9.0,43,0.00,,---,0.00,VWS V14.01,2013-02-07 14:15:00,
2013-02-07 09:20:00,21.7,2.2,30.52,North,7,5.0,9.0,42,0.00,,---,0.00,VWS V14.01,2013-02-07 14:20:00,
2013-02-07 09:25:00,21.9,2.8,30.52,North,7,5.0,9.0,43,0.00,,---,0.00,VWS V14.01,2013-02-07 14:25:00,
2013-02-07 09:30:00,22.1,2.5,30.52,NNW,346,3.0,9.0,42,0.00,,---,0.00,VWS V14.01,2013-02-07 14:30:00,
2013-02-07 09:35:00,22.1,2.5,30.52,NNW,332,5.0,10.0,42,0.00,,---,0.00,VWS V14.01,2013-02-07 14:35:00,
2013-02-07 09:40:00,22.0,1.9,30.52,NNE,13,3.0,10.0,41,0.00,,---,0.00,VWS V14.01,2013-02-07 14:40:00,
2013-02-07 09:45:00,22.0,1.9,30.53,NW,314,2.0,13.0,41,0.00,,---,0.00,VWS V14.01,2013-02-07 14:45:00,
2013-02-07 09:50:00,22.1,1.5,30.53,North,354,3.0,13.0,40,0.00,,---,0.00,VWS V14.01,2013-02-07 14:50:00,
2013-02-07 09:55:00,22.5,2.4,30.52,North,356,2.0,11.0,41,0.00,,---,0.00,VWS V14.01,2013-02-07 14:55:00,
2013-02-07 10:00:00,22.6,2.5,30.53,NNE,12,2.0,10.0,41,0.00,,---,0.00,VWS V14.01,2013-02-07 15:00:00,
2013-02-07 10:05:00,23.0,2.8,30.53,North,6,2.0,7.0,41,0.00,,---,0.00,VWS V14.01,2013-02-07 15:05:00,
2013-02-07 10:10:00,23.0,2.3,30.53,North,359,4.0,6.0,40,0.00,,---,0.00,VWS V14.01,2013-02-07 15:10:00,
2013-02-07 10:15:00,23.2,3.0,30.53,NNW,332,4.0,6.0,41,0.00,,---,0.00,VWS V14.01,2013-02-07 15:15:00,
2013-02-07 10:20:00,23.6,3.4,30.53,NNE,23,0.0,7.0,41,0.00,,---,0.00,VWS V14.01,2013-02-07 15:20:00,
2013-02-07 10:25:00,23.7,2.9,30.53,NW,324,2.0,10.0,40,0.00,,---,0.00,VWS V14.01,2013-02-07 15:25:00,
2013-02-07 10:30:00,23.5,1.6,30.53,NNE,13,5.0,12.0,38,0.00,,---,0.00,VWS V14.01,2013-02-07 15:30:00,
2013-02-07 10:35:00,23.6,2.3,30.53,NW,314,7.0,11.0,39,0.00,,---,0.00,VWS V14.01,2013-02-07 15:35:00,
2013-02-07 10:40:00,23.5,2.2,30.53,NW,319,3.0,11.0,39,0.00,,---,0.00,VWS V14.01,2013-02-07 15:40:00,
2013-02-07 10:45:00,23.6,2.3,30.53,NW,321,8.0,12.0,39,0.00,,---,0.00,VWS V14.01,2013-02-07 15:45:00,
2013-02-07 10:50:00,23.8,2.5,30.53,West,279,6.0,10.0,39,0.00,,---,0.00,VWS V14.01,2013-02-07 15:50:00,
2013-02-07 10:55:00,23.9,2.0,30.53,NE,50,3.0,11.0,38,0.00,,---,0.00,VWS V14.01,2013-02-07 15:55:00,
2013-02-07 11:00:00,24.2,3.4,30.53,NNW,337,5.0,7.0,40,0.00,,---,0.00,VWS V14.01,2013-02-07 16:00:00,
2013-02-07 11:05:00,24.5,2.5,30.53,NNW,336,1.0,12.0,38,0.00,,---,0.00,VWS V14.01,2013-02-07 16:05:00,
2013-02-07 11:10:00,24.8,3.4,30.53,NNE,30,1.0,7.0,39,0.00,,---,0.00,VWS V14.01,2013-02-07 16:10:00,
2013-02-07 11:15:00,25.3,3.3,30.53,NNW,338,3.0,5.0,38,0.00,,---,0.00,VWS V14.01,2013-02-07 16:15:00,
2013-02-07 11:20:00,25.4,3.3,30.53,NW,325,3.0,6.0,38,0.00,,---,0.00,VWS V14.01,2013-02-07 16:20:00,
2013-02-07 11:25:00,25.6,3.5,30.53,NNW,340,1.0,13.0,38,0.00,,---,0.00,VWS V14.01,2013-02-07 16:25:00,
2013-02-07 11:30:00,25.3,3.3,30.53,WNW,290,5.0,13.0,38,0.00,,---,0.00,VWS V14.01,2013-02-07 16:30:00,
2013-02-07 11:35:00,25.4,3.3,30.53,NNE,21,5.0,10.0,38,0.00,,---,0.00,VWS V14.01,2013-02-07 16:35:00,
2013-02-07 11:40:00,25.6,3.0,30.53,NNE,23,5.0,9.0,37,0.00,,---,0.00,VWS V14.01,2013-02-07 16:40:00,
2013-02-07 11:45:00,25.5,2.9,30.52,WNW,303,8.0,14.0,37,0.00,,---,0.00,VWS V14.01,2013-02-07 16:45:00,
2013-02-07 11:50:00,25.7,4.2,30.52,ESE,119,2.0,8.0,39,0.00,,---,0.00,VWS V14.01,2013-02-07 16:50:00,
2013-02-07 11:55:00,25.8,2.5,30.52,NNE,17,2.0,10.0,36,0.00,,---,0.00,VWS V14.01,2013-02-07 16:55:00,
2013-02-07 12:00:00,26.3,4.2,30.52,NW,315,4.0,5.0,38,0.00,,---,0.00,VWS V14.01,2013-02-07 17:00:00,
2013-02-07 12:05:00,26.4,3.7,30.51,NNE,18,4.0,7.0,37,0.00,,---,0.00,VWS V14.01,2013-02-07 17:05:00,
2013-02-07 12:10:00,26.4,3.1,30.51,NNW,336,4.0,8.0,36,0.00,,---,0.00,VWS V14.01,2013-02-07 17:10:00,
2013-02-07 12:15:00,25.9,2.6,30.51,NNE,13,3.0,11.0,36,0.00,,---,0.00,VWS V14.01,2013-02-07 17:15:00,
2013-02-07 12:20:00,26.0,3.3,30.51,East,97,2.0,7.0,37,0.00,,---,0.00,VWS V14.01,2013-02-07 17:20:00,
2013-02-07 12:25:00,26.4,4.2,30.51,NNE,30,1.0,9.0,38,0.00,,---,0.00,VWS V14.01,2013-02-07 17:25:00,
2013-02-07 12:30:00,26.8,3.4,30.51,North,4,3.0,8.0,36,0.00,,---,0.00,VWS V14.01,2013-02-07 17:30:00,
2013-02-07 12:35:00,26.8,4.0,30.50,North,1,2.0,6.0,37,0.00,,---,0.00,VWS V14.01,2013-02-07 17:35:00,
2013-02-07 12:40:00,27.2,4.4,30.50,WNW,285,2.0,5.0,37,0.00,,---,0.00,VWS V14.01,2013-02-07 17:40:00,
2013-02-07 12:45:00,27.4,4.6,30.50,NNW,348,2.0,5.0,37,0.00,,---,0.00,VWS V14.01,2013-02-07 17:45:00,
2013-02-07 12:50:00,27.3,3.3,30.50,NNE,13,4.0,8.0,35,0.00,,---,0.00,VWS V14.01,2013-02-07 17:50:00,
2013-02-07 12:55:00,27.1,3.1,30.50,NNE,23,0.0,7.0,35,0.00,,---,0.00,VWS V14.01,2013-02-07 17:55:00,
2013-02-07 13:00:00,27.1,3.1,30.50,NNE,30,6.0,7.0,35,0.00,,---,0.00,VWS V14.01,2013-02-07 18:00:00,
2013-02-07 13:05:00,27.0,3.6,30.50,NW,306,2.0,9.0,36,0.00,,---,0.00,VWS V14.01,2013-02-07 18:05:00,
2013-02-07 13:10:00,27.0,3.0,30.50,NW,314,0.0,8.0,35,0.00,,---,0.00,VWS V14.01,2013-02-07 18:10:00,
2013-02-07 13:15:00,27.5,4.1,30.50,NNW,336,2.0,6.0,36,0.00,,---,0.00,VWS V14.01,2013-02-07 18:15:00,
2013-02-07 13:20:00,28.0,3.3,30.50,East,101,2.0,4.0,34,0.00,,---,0.00,VWS V14.01,2013-02-07 18:20:00,
2013-02-07 13:25:00,28.2,3.5,30.49,NNE,20,4.0,6.0,34,0.00,,---,0.00,VWS V14.01,2013-02-07 18:25:00,
2013-02-07 13:30:00,28.3,4.2,30.49,North,354,0.0,4.0,35,0.00,,---,0.00,VWS V14.01,2013-02-07 18:30:00,
2013-02-07 13:35:00,28.4,3.6,30.49,NNE,21,3.0,10.0,34,0.00,,---,0.00,VWS V14.01,2013-02-07 18:35:00,
2013-02-07 13:40:00,28.3,2.9,30.49,NNE,12,6.0,7.0,33,0.00,,---,0.00,VWS V14.01,2013-02-07 18:40:00,
2013-02-07 13:45:00,28.4,3.0,30.49,ENE,77,3.0,6.0,33,0.00,,---,0.00,VWS V14.01,2013-02-07 18:45:00,
2013-02-07 13:50:00,28.6,4.4,30.49,NNE,24,6.0,7.0,35,0.00,,---,0.00,VWS V14.01,2013-02-07 18:50:00,
2013-02-07 13:55:00,28.5,3.1,30.48,NE,35,0.0,6.0,33,0.00,,---,0.00,VWS V14.01,2013-02-07 18:55:00,
2013-02-07 14:00:00,28.5,3.1,30.49,NW,322,0.0,6.0,33,0.00,,---,0.00,VWS V14.01,2013-02-07 19:00:00,
2013-02-07 14:05:00,28.1,2.7,30.48,North,10,1.0,4.0,33,0.00,,---,0.00,VWS V14.01,2013-02-07 19:05:00,
2013-02-07 14:10:00,28.5,3.1,30.48,North,6,2.0,7.0,33,0.00,,---,0.00,VWS V14.01,2013-02-07 19:10:00,
2013-02-07 14:15:00,28.7,3.9,30.48,NE,40,0.0,6.0,34,0.00,,---,0.00,VWS V14.01,2013-02-07 19:15:00,
2013-02-07 14:20:00,28.9,4.1,30.48,NE,54,0.0,3.0,34,0.00,,---,0.00,VWS V14.01,2013-02-07 19:20:00,
2013-02-07 14:25:00,28.7,3.2,30.48,East,91,4.0,6.0,33,0.00,,---,0.00,VWS V14.01,2013-02-07 19:25:00,
2013-02-07 14:30:00,28.2,2.8,30.48,NNE,14,2.0,6.0,33,0.00,,---,0.00,VWS V14.01,2013-02-07 19:30:00,
2013-02-07 14:35:00,28.2,2.8,30.48,North,4,4.0,4.0,33,0.00,,---,0.00,VWS V14.01,2013-02-07 19:35:00,
2013-02-07 14:40:00,28.5,3.1,30.48,ENE,67,0.0,4.0,33,0.00,,---,0.00,VWS V14.01,2013-02-07 19:40:00,
2013-02-07 14:45:00,28.9,4.1,30.48,NW,325,0.0,4.0,34,0.00,,---,0.00,VWS V14.01,2013-02-07 19:45:00,
2013-02-07 14:50:00,29.1,3.6,30.48,NNE,25,3.0,5.0,33,0.00,,---,0.00,VWS V14.01,2013-02-07 19:50:00,
2013-02-07 14:55:00,29.4,3.9,30.48,NW,321,2.0,4.0,33,0.00,,---,0.00,VWS V14.01,2013-02-07 19:55:00,
2013-02-07 15:00:00,28.5,2.4,30.48,North,8,2.0,7.0,32,0.00,,---,0.00,VWS V14.01,2013-02-07 20:00:00,
2013-02-07 15:05:00,28.1,2.7,30.48,North,10,1.0,4.0,33,0.00,,---,0.00,VWS V14.01,2013-02-07 20:05:00,
2013-02-07 15:10:00,27.8,3.1,30.48,WNW,289,2.0,4.0,34,0.00,,---,0.00,VWS V14.01,2013-02-07 20:10:00,
2013-02-07 15:15:00,27.7,2.4,30.49,NNE,21,1.0,4.0,33,0.00,,---,0.00,VWS V14.01,2013-02-07 20:15:00,
2013-02-07 15:20:00,27.7,3.6,30.49,North,352,1.0,3.0,35,0.00,,---,0.00,VWS V14.01,2013-02-07 20:20:00,
2013-02-07 15:25:00,27.7,3.0,30.49,NNE,17,0.0,4.0,34,0.00,,---,0.00,VWS V14.01,2013-02-07 20:25:00,
2013-02-07 15:30:00,27.8,3.1,30.49,ENE,57,0.0,2.0,34,0.00,,---,0.00,VWS V14.01,2013-02-07 20:30:00,
2013-02-07 15:35:00,27.6,2.3,30.49,North,9,0.0,5.0,33,0.00,,---,0.00,VWS V14.01,2013-02-07 20:35:00,
2013-02-07 15:40:00,27.5,2.8,30.49,East,87,0.0,2.0,34,0.00,,---,0.00,VWS V14.01,2013-02-07 20:40:00,
2013-02-07 15:45:00,27.4,2.7,30.49,SSE,152,0.0,4.0,34,0.00,,---,0.00,VWS V14.01,2013-02-07 20:45:00,
2013-02-07 15:50:00,27.4,2.1,30.49,North,6,0.0,4.0,33,0.00,,---,0.00,VWS V14.01,2013-02-07 20:50:00,
2013-02-07 15:55:00,27.3,2.7,30.49,NNE,30,0.0,3.0,34,0.00,,---,0.00,VWS V14.01,2013-02-07 20:55:00,
2013-02-07 16:00:00,27.3,3.3,30.48,East,90,0.0,2.0,35,0.00,,---,0.00,VWS V14.01,2013-02-07 21:00:00,
2013-02-07 16:05:00,27.2,2.6,30.48,NNE,24,0.0,3.0,34,0.00,,---,0.00,VWS V14.01,2013-02-07 21:05:00,
2013-02-07 16:10:00,27.3,3.3,30.48,ENE,77,0.0,1.0,35,0.00,,---,0.00,VWS V14.01,2013-02-07 21:10:00,
2013-02-07 16:15:00,27.3,2.0,30.49,North,8,0.0,3.0,33,0.00,,---,0.00,VWS V14.01,2013-02-07 21:15:00,
2013-02-07 16:20:00,27.2,2.6,30.48,SSE,156,0.0,2.0,34,0.00,,---,0.00,VWS V14.01,2013-02-07 21:20:00,
2013-02-07 16:25:00,27.2,1.9,30.49,NNE,21,0.0,3.0,33,0.00,,---,0.00,VWS V14.01,2013-02-07 21:25:00,
2013-02-07 16:30:00,27.1,2.5,30.49,NNE,17,2.0,2.0,34,0.00,,---,0.00,VWS V14.01,2013-02-07 21:30:00,
2013-02-07 16:35:00,27.0,2.4,30.49,NNE,19,0.0,3.0,34,0.00,,---,0.00,VWS V14.01,2013-02-07 21:35:00,
2013-02-07 16:40:00,27.0,3.0,30.49,NNE,19,0.0,1.0,35,0.00,,---,0.00,VWS V14.01,2013-02-07 21:40:00,
2013-02-07 16:45:00,27.0,3.0,30.49,NNE,23,0.0,1.0,35,0.00,,---,0.00,VWS V14.01,2013-02-07 21:45:00,
2013-02-07 16:50:00,27.0,3.0,30.49,NNE,23,0.0,1.0,35,0.00,,---,0.00,VWS V14.01,2013-02-07 21:50:00,
2013-02-07 16:55:00,26.9,2.9,30.48,East,90,0.0,2.0,35,0.00,,---,0.00,VWS V14.01,2013-02-07 21:55:00,
2013-02-07 17:00:00,26.7,2.7,30.49,East,90,0.0,2.0,35,0.00,,---,0.00,VWS V14.01,2013-02-07 22:00:00,
2013-02-07 17:05:00,26.6,3.3,30.49,East,90,0.0,0.0,36,0.00,,---,0.00,VWS V14.01,2013-02-07 22:05:00,
2013-02-07 17:10:00,26.5,2.6,30.49,East,90,0.0,1.0,35,0.00,,---,0.00,VWS V14.01,2013-02-07 22:10:00,
2013-02-07 17:15:00,26.3,3.6,30.49,East,90,0.0,1.0,37,0.00,,---,0.00,VWS V14.01,2013-02-07 22:15:00,
2013-02-07 17:20:00,26.1,3.4,30.49,East,90,0.0,1.0,37,0.00,,---,0.00,VWS V14.01,2013-02-07 22:20:00,
2013-02-07 17:25:00,26.0,2.7,30.49,East,90,0.0,1.0,36,0.00,,---,0.00,VWS V14.01,2013-02-07 22:25:00,
2013-02-07 17:30:00,25.8,1.9,30.49,East,90,0.0,1.0,35,0.00,,---,0.00,VWS V14.01,2013-02-07 22:30:00,
2013-02-07 17:35:00,25.7,3.0,30.50,SSE,149,0.0,3.0,37,0.00,,---,0.00,VWS V14.01,2013-02-07 22:35:00,
2013-02-07 17:40:00,25.5,2.3,30.50,SSE,149,0.0,1.0,36,0.00,,---,0.00,VWS V14.01,2013-02-07 22:40:00,
2013-02-07 17:45:00,25.5,2.9,30.50,SSE,149,0.0,0.0,37,0.00,,---,0.00,VWS V14.01,2013-02-07 22:45:00,
2013-02-07 17:50:00,25.5,2.9,30.50,SSE,149,0.0,1.0,37,0.00,,---,0.00,VWS V14.01,2013-02-07 22:50:00,
2013-02-07 17:55:00,25.5,2.9,30.50,SSE,149,0.0,1.0,37,0.00,,---,0.00,VWS V14.01,2013-02-07 22:55:00,
2013-02-07 18:00:00,25.5,2.3,30.50,SSE,149,0.0,2.0,36,0.00,,---,0.00,VWS V14.01,2013-02-07 23:00:00,
2013-02-07 18:05:00,25.5,2.9,30.51,SSE,149,0.0,2.0,37,0.00,,---,0.00,VWS V14.01,2013-02-07 23:05:00,
2013-02-07 18:10:00,25.5,3.4,30.50,SSE,149,0.0,0.0,38,0.00,,---,0.00,VWS V14.01,2013-02-07 23:10:00,
2013-02-07 18:15:00,25.5,2.9,30.50,SSE,149,0.0,1.0,37,0.00,,---,0.00,VWS V14.01,2013-02-07 23:15:00,
2013-02-07 18:20:00,25.5,2.9,30.51,SSE,149,0.0,2.0,37,0.00,,---,0.00,VWS V14.01,2013-02-07 23:20:00,
2013-02-07 18:25:00,25.5,1.7,30.51,SE,133,0.0,3.0,35,0.00,,---,0.00,VWS V14.01,2013-02-07 23:25:00,
2013-02-07 18:30:00,25.4,1.6,30.51,SE,125,0.0,3.0,35,0.00,,---,0.00,VWS V14.01,2013-02-07 23:30:00,
2013-02-07 18:35:00,25.4,1.0,30.52,East,95,0.0,2.0,34,0.00,,---,0.00,VWS V14.01,2013-02-07 23:35:00,
2013-02-07 18:40:00,25.4,1.6,30.52,East,95,0.0,1.0,35,0.00,,---,0.00,VWS V14.01,2013-02-07 23:40:00,
2013-02-07 18:45:00,25.4,1.6,30.52,SSW,200,1.0,2.0,35,0.00,,---,0.00,VWS V14.01,2013-02-07 23:45:00,
2013-02-07 18:50:00,25.4,2.2,30.52,SSW,200,0.0,1.0,36,0.00,,---,0.00,VWS V14.01,2013-02-07 23:50:00,
2013-02-07 18:55:00,25.3,0.9,30.52,SSW,200,0.0,1.0,34,0.00,,---,0.00,VWS V14.01,2013-02-07 23:55:00,
2013-02-07 19:00:00,25.3,2.1,30.52,SSW,200,0.0,1.0,36,0.00,,---,0.00,VWS V14.01,2013-02-08 00:00:00,
2013-02-07 19:05:00,25.3,0.9,30.53,East,90,0.0,3.0,34,0.00,,---,0.00,VWS V14.01,2013-02-08 00:05:00,
2013-02-07 19:10:00,25.3,0.9,30.52,SSE,167,0.0,2.0,34,0.00,,---,0.00,VWS V14.01,2013-02-08 00:10:00,
2013-02-07 19:15:00,25.3,1.5,30.52,SSE,167,1.0,1.0,35,0.00,,---,0.00,VWS V14.01,2013-02-08 00:15:00,
2013-02-07 19:20:00,25.3,1.5,30.52,SSE,167,0.0,1.0,35,0.00,,---,0.00,VWS V14.01,2013-02-08 00:20:00,
2013-02-07 19:25:00,25.3,0.9,30.51,SSE,167,0.0,1.0,34,0.00,,---,0.00,VWS V14.01,2013-02-08 00:25:00,
2013-02-07 19:30:00,25.1,1.3,30.51,SE,146,1.0,3.0,35,0.00,,---,0.00,VWS V14.01,2013-02-08 00:30:00,
2013-02-07 19:35:00,25.0,1.2,30.51,SE,146,0.0,1.0,35,0.00,,---,0.00,VWS V14.01,2013-02-08 00:35:00,
2013-02-07 19:40:00,24.7,1.6,30.51,SE,146,0.0,1.0,36,0.00,,---,0.00,VWS V14.01,2013-02-08 00:40:00,
2013-02-07 19:45:00,24.6,1.5,30.51,SE,146,0.0,1.0,36,0.00,,---,0.00,VWS V14.01,2013-02-08 00:45:00,
2013-02-07 19:50:00,24.4,3.0,30.52,SE,146,0.0,1.0,39,0.00,,---,0.00,VWS V14.01,2013-02-08 00:50:00,
2013-02-07 19:55:00,24.2,2.8,30.52,SE,146,0.0,1.0,39,0.00,,---,0.00,VWS V14.01,2013-02-08 00:55:00,
2013-02-07 20:00:00,24.1,3.3,30.51,SE,146,0.0,0.0,40,0.00,,---,0.00,VWS V14.01,2013-02-08 01:00:00,
2013-02-07 20:05:00,23.9,4.2,30.51,SE,146,0.0,0.0,42,0.00,,---,0.00,VWS V14.01,2013-02-08 01:05:00,
2013-02-07 20:10:00,23.8,3.5,30.51,SE,146,0.0,1.0,41,0.00,,---,0.00,VWS V14.01,2013-02-08 01:10:00,
2013-02-07 20:15:00,23.8,3.5,30.51,SE,143,0.0,2.0,41,0.00,,---,0.00,VWS V14.01,2013-02-08 01:15:00,
2013-02-07 20:20:00,23.9,4.2,30.51,SE,143,0.0,1.0,42,0.00,,---,0.00,VWS V14.01,2013-02-08 01:20:00,
2013-02-07 20:25:00,23.9,4.2,30.51,SE,143,0.0,1.0,42,0.00,,---,0.00,VWS V14.01,2013-02-08 01:25:00,
2013-02-07 20:30:00,24.0,3.7,30.51,SE,143,0.0,1.0,41,0.00,,---,0.00,VWS V14.01,2013-02-08 01:30:00,
2013-02-07 20:35:00,24.0,5.3,30.51,SE,143,0.0,0.0,44,0.00,,---,0.00,VWS V14.01,2013-02-08 01:35:00,
2013-02-07 20:40:00,24.0,4.2,30.51,SE,143,0.0,1.0,42,0.00,,---,0.00,VWS V14.01,2013-02-08 01:40:00,
2013-02-07 20:45:00,24.1,4.3,30.52,SE,136,0.0,1.0,42,0.00,,---,0.00,VWS V14.01,2013-02-08 01:45:00,
2013-02-07 20:50:00,24.1,3.8,30.52,SE,136,0.0,2.0,41,0.00,,---,0.00,VWS V14.01,2013-02-08 01:50:00,
2013-02-07 20:55:00,24.2,4.4,30.52,SE,136,0.0,1.0,42,0.00,,---,0.00,VWS V14.01,2013-02-08 01:55:00,
2013-02-07 21:00:00,24.3,4.5,30.52,SE,136,0.0,1.0,42,0.00,,---,0.00,VWS V14.01,2013-02-08 02:00:00,
2013-02-07 21:05:00,24.3,3.5,30.51,SE,136,0.0,1.0,40,0.00,,---,0.00,VWS V14.01,2013-02-08 02:05:00,
2013-02-07 21:10:00,24.3,3.5,30.51,SE,136,0.0,2.0,40,0.00,,---,0.00,VWS V14.01,2013-02-08 02:10:00,
2013-02-07 21:15:00,24.4,4.1,30.51,SE,136,0.0,1.0,41,0.00,,---,0.00,VWS V14.01,2013-02-08 02:15:00,
2013-02-07 21:20:00,24.4,4.1,30.51,SE,125,0.0,2.0,41,0.00,,---,0.00,VWS V14.01,2013-02-08 02:20:00,
2013-02-07 21:25:00,24.4,4.6,30.51,SE,125,0.0,1.0,42,0.00,,---,0.00,VWS V14.01,2013-02-08 02:25:00,
2013-02-07 21:30:00,24.5,4.2,30.51,SE,125,0.0,2.0,41,0.00,,---,0.00,VWS V14.01,2013-02-08 02:30:00,
2013-02-07 21:35:00,24.5,4.2,30.51,SE,125,0.0,2.0,41,0.00,,---,0.00,VWS V14.01,2013-02-08 02:35:00,
2013-02-07 21:40:00,24.5,5.2,30.51,SE,125,0.0,1.0,43,0.00,,---,0.00,VWS V14.01,2013-02-08 02:40:00,
2013-02-07 21:45:00,24.6,5.8,30.51,SE,125,0.0,1.0,44,0.00,,---,0.00,VWS V14.01,2013-02-08 02:45:00,
2013-02-07 21:50:00,24.6,5.3,30.51,SE,125,0.0,1.0,43,0.00,,---,0.00,VWS V14.01,2013-02-08 02:50:00,
2013-02-07 21:55:00,24.6,5.3,30.50,SE,125,0.0,1.0,43,0.00,,---,0.00,VWS V14.01,2013-02-08 02:55:00,
2013-02-07 22:00:00,24.6,5.3,30.50,SE,125,0.0,2.0,43,0.00,,---,0.00,VWS V14.01,2013-02-08 03:00:00,
2013-02-07 22:05:00,24.6,5.3,30.50,SE,125,0.0,1.0,43,0.00,,---,0.00,VWS V14.01,2013-02-08 03:05:00,
2013-02-07 22:10:00,24.7,5.9,30.50,SE,125,0.0,0.0,44,0.00,,---,0.00,VWS V14.01,2013-02-08 03:10:00,
2013-02-07 22:15:00,24.7,5.9,30.49,SE,125,0.0,1.0,44,0.00,,---,0.00,VWS V14.01,2013-02-08 03:15:00,
2013-02-07 22:20:00,24.7,6.9,30.50,SE,125,0.0,0.0,46,0.00,,---,0.00,VWS V14.01,2013-02-08 03:20:00,
2013-02-07 22:25:00,24.7,7.3,30.50,SE,125,0.0,0.0,47,0.00,,---,0.00,VWS V14.01,2013-02-08 03:25:00,
2013-02-07 22:30:00,24.8,7.0,30.50,SE,125,0.0,1.0,46,0.00,,---,0.00,VWS V14.01,2013-02-08 03:30:00,
2013-02-07 22:35:00,24.8,7.4,30.50,SE,125,0.0,1.0,47,0.00,,---,0.00,VWS V14.01,2013-02-08 03:35:00,
2013-02-07 22:40:00,24.9,8.5,30.50,SE,125,0.0,0.0,49,0.00,,---,0.00,VWS V14.01,2013-02-08 03:40:00,
2013-02-07 22:45:00,24.9,8.5,30.50,SE,125,0.0,0.0,49,0.00,,---,0.00,VWS V14.01,2013-02-08 03:45:00,
2013-02-07 22:50:00,25.0,9.0,30.49,SE,125,0.0,0.0,50,0.00,,---,0.00,VWS V14.01,2013-02-08 03:50:00,
2013-02-07 22:55:00,25.1,10.0,30.49,ESE,117,0.0,2.0,52,0.00,,---,0.00,VWS V14.01,2013-02-08 03:55:00,
2013-02-07 23:00:00,25.2,10.9,30.49,ESE,117,0.0,1.0,54,0.00,,---,0.00,VWS V14.01,2013-02-08 04:00:00,
2013-02-07 23:05:00,25.4,12.7,30.49,ESE,117,0.0,2.0,58,0.00,,---,0.00,VWS V14.01,2013-02-08 04:05:00,
2013-02-07 23:10:00,25.6,13.3,30.49,ESE,117,0.0,3.0,59,0.00,,---,0.00,VWS V14.01,2013-02-08 04:10:00,
2013-02-07 23:15:00,25.8,13.5,30.49,ESE,117,0.0,2.0,59,0.00,,---,0.00,VWS V14.01,2013-02-08 04:15:00,
2013-02-07 23:20:00,25.9,13.6,30.49,ESE,117,0.0,0.0,59,0.00,,---,0.00,VWS V14.01,2013-02-08 04:20:00,
2013-02-07 23:25:00,26.1,14.1,30.50,ESE,117,0.0,1.0,60,0.00,,---,0.00,VWS V14.01,2013-02-08 04:25:00,
2013-02-07 23:30:00,26.1,14.5,30.50,ESE,117,0.0,1.0,61,0.00,,---,0.00,VWS V14.01,2013-02-08 04:30:00,
2013-02-07 23:35:00,26.2,14.6,30.51,ESE,117,0.0,1.0,61,0.00,,---,0.00,VWS V14.01,2013-02-08 04:35:00,
2013-02-07 23:40:00,26.3,14.3,30.50,ESE,117,0.0,0.0,60,0.00,,---,0.00,VWS V14.01,2013-02-08 04:40:00,
2013-02-07 23:45:00,26.3,15.1,30.50,ESE,117,0.0,0.0,62,0.00,,---,0.00,VWS V14.01,2013-02-08 04:45:00,
2013-02-07 23:50:00,26.3,15.1,30.50,ESE,117,0.0,0.0,62,0.00,,---,0.00,VWS V14.01,2013-02-08 04:50:00,
2013-02-07 23:55:00,26.3,16.1,30.49,ESE,117,0.0,0.0,65,0.00,,---,0.00,VWS V14.01,2013-02-08 04:55:00,